sensor_id;sensor_type;location;lat;lon;timestamp;pressure;altitude;pressure_sealevel;temperature;humidity
36354;BME280;22383;51.114;13.666;2023-12-07T00:02:07;67076.22;;;-1.09;100.00
36354;BME280;22383;51.114;13.666;2023-12-07T00:04:34;67071.94;;;-1.11;100.00
36354;BME280;22383;51.114;13.666;2023-12-07T00:07:02;67073.41;;;-1.12;100.00
36354;BME280;22383;51.114;13.666;2023-12-07T00:09:29;67068.22;;;-1.12;100.00
36354;BME280;22383;51.114;13.666;2023-12-07T00:11:56;67077.13;;;-1.11;100.00
36354;BME280;22383;51.114;13.666;2023-12-07T00:14:23;67074.53;;;-1.11;100.00
36354;BME280;22383;51.114;13.666;2023-12-07T00:16:50;67069.34;;;-1.11;100.00
36354;BME280;22383;51.114;13.666;2023-12-07T00:19:17;67071.94;;;-1.11;100.00
36354;BME280;22383;51.114;13.666;2023-12-07T00:21:44;67082.19;;;-1.06;100.00
36354;BME280;22383;51.114;13.666;2023-12-07T00:24:12;67072.72;;;-1.08;100.00
36354;BME280;22383;51.114;13.666;2023-12-07T00:26:39;67077.34;;;-1.08;100.00
36354;BME280;22383;51.114;13.666;2023-12-07T00:29:06;67077.91;;;-1.08;100.00
36354;BME280;22383;51.114;13.666;2023-12-07T00:31:33;67072.16;;;-1.08;100.00
36354;BME280;22383;51.114;13.666;2023-12-07T00:34:00;67081.63;;;-1.07;100.00
36354;BME280;22383;51.114;13.666;2023-12-07T00:36:27;67071.25;;;-1.07;100.00
36354;BME280;22383;51.114;13.666;2023-12-07T00:38:55;67078.69;;;-1.05;100.00
36354;BME280;22383;51.114;13.666;2023-12-07T00:41:22;67076.44;;;-1.07;100.00
36354;BME280;22383;51.114;13.666;2023-12-07T00:43:49;67083.28;;;-1.05;100.00
36354;BME280;22383;51.114;13.666;2023-12-07T00:46:17;67078.09;;;-1.05;100.00
36354;BME280;22383;51.114;13.666;2023-12-07T00:48:44;67081.81;;;-1.04;100.00
36354;BME280;22383;51.114;13.666;2023-12-07T00:51:11;67090.03;;;-0.99;100.00
36354;BME280;22383;51.114;13.666;2023-12-07T00:53:38;67083.72;;;-1.00;100.00
36354;BME280;22383;51.114;13.666;2023-12-07T00:56:06;67086.88;;;-1.00;100.00
36354;BME280;22383;51.114;13.666;2023-12-07T00:58:33;67086.19;;;-0.96;100.00
36354;BME280;22383;51.114;13.666;2023-12-07T01:01:01;67090.47;;;-0.94;100.00
36354;BME280;22383;51.114;13.666;2023-12-07T01:03:28;67093.25;;;-0.91;100.00
36354;BME280;22383;51.114;13.666;2023-12-07T01:05:55;67093.84;;;-0.91;100.00
36354;BME280;22383;51.114;13.666;2023-12-07T01:08:22;67092.16;;;-0.92;100.00
36354;BME280;22383;51.114;13.666;2023-12-07T01:10:49;67091.78;;;-0.90;100.00
36354;BME280;22383;51.114;13.666;2023-12-07T01:13:17;67093.25;;;-0.91;100.00
36354;BME280;22383;51.114;13.666;2023-12-07T01:15:44;67095.84;;;-0.91;100.00
36354;BME280;22383;51.114;13.666;2023-12-07T01:18:11;67093.25;;;-0.91;100.00
36354;BME280;22383;51.114;13.666;2023-12-07T01:20:38;67097.75;;;-0.87;100.00
36354;BME280;22383;51.114;13.666;2023-12-07T01:23:05;67097.75;;;-0.87;100.00
36354;BME280;22383;51.114;13.666;2023-12-07T01:25:33;67098.69;;;-0.89;100.00
36354;BME280;22383;51.114;13.666;2023-12-07T01:28:00;67094.94;;;-0.90;100.00
36354;BME280;22383;51.114;13.666;2023-12-07T01:30:27;67073.25;;;-0.88;100.00
36354;BME280;22383;51.114;13.666;2023-12-07T01:32:55;67103.50;;;-0.87;100.00
36354;BME280;22383;51.114;13.666;2023-12-07T01:35:22;67100.56;;;-0.85;100.00
36354;BME280;22383;51.114;13.666;2023-12-07T01:37:49;67104.84;;;-0.83;100.00
36354;BME280;22383;51.114;13.666;2023-12-07T01:40:16;67102.81;;;-0.83;100.00
36354;BME280;22383;51.114;13.666;2023-12-07T01:42:51;67101.91;;;-0.81;100.00
36354;BME280;22383;51.114;13.666;2023-12-07T01:45:19;67105.28;;;-0.78;100.00
36354;BME280;22383;51.114;13.666;2023-12-07T01:47:49;67106.72;;;-0.79;100.00
36354;BME280;22383;51.114;13.666;2023-12-07T01:50:17;67106.72;;;-0.79;100.00
36354;BME280;22383;51.114;13.666;2023-12-07T01:52:54;67109.56;;;-0.77;100.00
36354;BME280;22383;51.114;13.666;2023-12-07T01:55:23;67109.00;;;-0.77;100.00
36354;BME280;22383;51.114;13.666;2023-12-07T01:57:50;67109.56;;;-0.77;100.00
36354;BME280;22383;51.114;13.666;2023-12-07T02:00:17;67112.94;;;-0.73;100.00
36354;BME280;22383;51.114;13.666;2023-12-07T02:02:46;67113.13;;;-0.71;100.00
36354;BME280;22383;51.114;13.666;2023-12-07T02:05:14;67114.59;;;-0.72;100.00
36354;BME280;22383;51.114;13.666;2023-12-07T02:07:41;67114.59;;;-0.72;100.00
36354;BME280;22383;51.114;13.666;2023-12-07T02:10:10;67116.09;;;-0.73;100.00
36354;BME280;22383;51.114;13.666;2023-12-07T02:12:37;67116.63;;;-0.72;100.00
36354;BME280;22383;51.114;13.666;2023-12-07T02:15:05;67118.88;;;-0.70;100.00
36354;BME280;22383;51.114;13.666;2023-12-07T02:17:51;67118.31;;;-0.71;100.00
36354;BME280;22383;51.114;13.666;2023-12-07T02:20:28;67114.81;;;-0.69;100.00
36354;BME280;22383;51.114;13.666;2023-12-07T02:23:00;67117.41;;;-0.69;100.00
36354;BME280;22383;51.114;13.666;2023-12-07T02:25:44;67120.78;;;-0.66;100.00
36354;BME280;22383;51.114;13.666;2023-12-07T02:28:15;67122.13;;;-0.63;100.00
36354;BME280;22383;51.114;13.666;2023-12-07T02:30:42;67121.91;;;-0.65;100.00
36354;BME280;22383;51.114;13.666;2023-12-07T02:33:10;67124.50;;;-0.65;100.00
36354;BME280;22383;51.114;13.666;2023-12-07T02:35:38;67121.91;;;-0.65;100.00
36354;BME280;22383;51.114;13.666;2023-12-07T02:38:07;67124.13;;;-0.63;100.00
36354;BME280;22383;51.114;13.666;2023-12-07T02:40:34;67122.47;;;-0.65;100.00
36354;BME280;22383;51.114;13.666;2023-12-07T02:43:03;67125.28;;;-0.62;100.00
36354;BME280;22383;51.114;13.666;2023-12-07T02:45:31;67125.81;;;-0.62;100.00
36354;BME280;22383;51.114;13.666;2023-12-07T02:47:58;67130.13;;;-0.60;100.00
36354;BME280;22383;51.114;13.666;2023-12-07T02:50:25;67127.50;;;-0.60;100.00
36354;BME280;22383;51.114;13.666;2023-12-07T02:52:52;67129.19;;;-0.59;100.00
36354;BME280;22383;51.114;13.666;2023-12-07T02:55:20;67129.75;;;-0.58;100.00
36354;BME280;22383;51.114;13.666;2023-12-07T02:57:47;67132.34;;;-0.58;100.00
36354;BME280;22383;51.114;13.666;2023-12-07T03:00:15;67129.19;;;-0.59;100.00
36354;BME280;22383;51.114;13.666;2023-12-07T03:02:42;67127.50;;;-0.60;100.00
36354;BME280;22383;51.114;13.666;2023-12-07T03:05:09;67125.50;;;-0.60;100.00
36354;BME280;22383;51.114;13.666;2023-12-07T03:07:36;67128.44;;;-0.62;100.00
36354;BME280;22383;51.114;13.666;2023-12-07T03:10:04;67130.13;;;-0.60;100.00
36354;BME280;22383;51.114;13.666;2023-12-07T03:12:31;67124.91;;;-0.60;100.00
36354;BME280;22383;51.114;13.666;2023-12-07T03:14:58;67130.88;;;-0.57;100.00
36354;BME280;22383;51.114;13.666;2023-12-07T03:17:25;67132.03;;;-0.56;100.00
36354;BME280;22383;51.114;13.666;2023-12-07T03:19:52;67132.56;;;-0.55;100.00
36354;BME280;22383;51.114;13.666;2023-12-07T03:22:20;67132.03;;;-0.56;100.00
36354;BME280;22383;51.114;13.666;2023-12-07T03:24:51;67133.13;;;-0.55;100.00
36354;BME280;22383;51.114;13.666;2023-12-07T03:27:18;67131.09;;;-0.54;100.00
36354;BME280;22383;51.114;13.666;2023-12-07T03:29:46;67134.25;;;-0.54;100.00
36354;BME280;22383;51.114;13.666;2023-12-07T03:32:13;67132.22;;;-0.53;100.00
36354;BME280;22383;51.114;13.666;2023-12-07T03:34:40;67138.75;;;-0.50;100.00
36354;BME280;22383;51.114;13.666;2023-12-07T03:37:08;67135.59;;;-0.50;100.00
36354;BME280;22383;51.114;13.666;2023-12-07T03:39:35;67137.63;;;-0.51;100.00
36354;BME280;22383;51.114;13.666;2023-12-07T03:42:02;67138.75;;;-0.50;100.00
36354;BME280;22383;51.114;13.666;2023-12-07T03:44:29;67137.63;;;-0.51;100.00
36354;BME280;22383;51.114;13.666;2023-12-07T03:46:57;67138.97;;;-0.47;100.00
36354;BME280;22383;51.114;13.666;2023-12-07T03:49:24;67139.31;;;-0.49;100.00
36354;BME280;22383;51.114;13.666;2023-12-07T03:51:52;67136.16;;;-0.50;100.00
36354;BME280;22383;51.114;13.666;2023-12-07T03:54:19;67140.09;;;-0.46;100.00
36354;BME280;22383;51.114;13.666;2023-12-07T03:56:46;67142.69;;;-0.46;100.00
36354;BME280;22383;51.114;13.666;2023-12-07T03:59:13;67143.25;;;-0.46;100.00
36354;BME280;22383;51.114;13.666;2023-12-07T04:01:40;67144.38;;;-0.45;100.00
36354;BME280;22383;51.114;13.666;2023-12-07T04:04:09;67146.41;;;-0.45;100.00
36354;BME280;22383;51.114;13.666;2023-12-07T04:06:36;67141.78;;;-0.45;100.00
36354;BME280;22383;51.114;13.666;2023-12-07T04:09:03;67144.94;;;-0.44;100.00
36354;BME280;22383;51.114;13.666;2023-12-07T04:11:31;67142.31;;;-0.44;100.00
36354;BME280;22383;51.114;13.666;2023-12-07T04:13:58;67148.66;;;-0.43;100.00
36354;BME280;22383;51.114;13.666;2023-12-07T04:16:26;67145.50;;;-0.44;100.00
36354;BME280;22383;51.114;13.666;2023-12-07T04:18:53;67151.47;;;-0.41;100.00
36354;BME280;22383;51.114;13.666;2023-12-07T04:21:21;67150.00;;;-0.40;100.00
36354;BME280;22383;51.114;13.666;2023-12-07T04:23:48;67152.78;;;-0.37;100.00
36354;BME280;22383;51.114;13.666;2023-12-07T04:26:15;67156.53;;;-0.36;100.00
36354;BME280;22383;51.114;13.666;2023-12-07T04:28:42;67149.06;;;-0.38;100.00
36354;BME280;22383;51.114;13.666;2023-12-07T04:31:09;67151.31;;;-0.36;100.00
36354;BME280;22383;51.114;13.666;2023-12-07T04:33:37;67150.75;;;-0.36;100.00
36354;BME280;22383;51.114;13.666;2023-12-07T04:36:04;67149.84;;;-0.35;100.00
36354;BME280;22383;51.114;13.666;2023-12-07T04:38:31;67152.78;;;-0.37;100.00
36354;BME280;22383;51.114;13.666;2023-12-07T04:40:59;67151.31;;;-0.36;100.00
36354;BME280;22383;51.114;13.666;2023-12-07T04:43:26;67154.47;;;-0.35;100.00
36354;BME280;22383;51.114;13.666;2023-12-07T04:45:53;67155.06;;;-0.35;100.00
36354;BME280;22383;51.114;13.666;2023-12-07T04:48:20;67157.84;;;-0.32;100.00
36354;BME280;22383;51.114;13.666;2023-12-07T04:50:47;67155.59;;;-0.34;100.00
36354;BME280;22383;51.114;13.666;2023-12-07T04:53:15;67153.56;;;-0.34;100.00
36354;BME280;22383;51.114;13.666;2023-12-07T04:55:42;67155.59;;;-0.34;100.00
36354;BME280;22383;51.114;13.666;2023-12-07T04:58:13;67161.91;;;-0.33;100.00
36354;BME280;22383;51.114;13.666;2023-12-07T05:00:41;67156.72;;;-0.33;100.00
36354;BME280;22383;51.114;13.666;2023-12-07T05:03:08;67154.47;;;-0.35;100.00
36354;BME280;22383;51.114;13.666;2023-12-07T05:05:36;67157.66;;;-0.35;100.00
36354;BME280;22383;51.114;13.666;2023-12-07T05:08:03;67154.47;;;-0.35;100.00
36354;BME280;22383;51.114;13.666;2023-12-07T05:10:30;67159.91;;;-0.33;100.00
36354;BME280;22383;51.114;13.666;2023-12-07T05:12:58;67159.53;;;-0.31;100.00
36354;BME280;22383;51.114;13.666;2023-12-07T05:15:25;67162.13;;;-0.31;100.00
36354;BME280;22383;51.114;13.666;2023-12-07T05:17:52;67164.19;;;-0.31;100.00
36354;BME280;22383;51.114;13.666;2023-12-07T05:20:20;67160.09;;;-0.30;100.00
36354;BME280;22383;51.114;13.666;2023-12-07T05:22:49;67162.91;;;-0.28;100.00
36354;BME280;22383;51.114;13.666;2023-12-07T05:25:17;67165.50;;;-0.28;100.00
36354;BME280;22383;51.114;13.666;2023-12-07T05:27:44;67170.34;;;-0.26;100.00
36354;BME280;22383;51.114;13.666;2023-12-07T05:30:12;67162.13;;;-0.31;100.00
36354;BME280;22383;51.114;13.666;2023-12-07T05:32:40;67161.22;;;-0.29;100.00
36354;BME280;22383;51.114;13.666;2023-12-07T05:35:07;67156.94;;;-0.31;100.00
36354;BME280;22383;51.114;13.666;2023-12-07T05:37:34;67159.53;;;-0.31;100.00
36354;BME280;22383;51.114;13.666;2023-12-07T05:40:01;67158.97;;;-0.31;100.00
36354;BME280;22383;51.114;13.666;2023-12-07T05:42:28;67157.13;;;-0.28;100.00
36354;BME280;22383;51.114;13.666;2023-12-07T05:44:55;67164.94;;;-0.28;100.00
36354;BME280;22383;51.114;13.666;2023-12-07T05:47:23;67162.91;;;-0.28;100.00
36354;BME280;22383;51.114;13.666;2023-12-07T05:49:50;67159.75;;;-0.28;100.00
36354;BME280;22383;51.114;13.666;2023-12-07T05:52:17;67163.28;;;-0.30;100.00
36354;BME280;22383;51.114;13.666;2023-12-07T05:54:44;67162.91;;;-0.28;100.00
36354;BME280;22383;51.114;13.666;2023-12-07T05:57:13;67164.03;;;-0.27;100.00
36354;BME280;22383;51.114;13.666;2023-12-07T05:59:41;67164.59;;;-0.26;100.00
36354;BME280;22383;51.114;13.666;2023-12-07T06:02:10;67165.16;;;-0.26;100.00
36354;BME280;22383;51.114;13.666;2023-12-07T06:04:37;67164.03;;;-0.27;100.00
36354;BME280;22383;51.114;13.666;2023-12-07T06:07:05;67164.94;;;-0.28;100.00
36354;BME280;22383;51.114;13.666;2023-12-07T06:09:32;67165.50;;;-0.28;100.00
36354;BME280;22383;51.114;13.666;2023-12-07T06:11:59;67162.91;;;-0.28;100.00
36354;BME280;22383;51.114;13.666;2023-12-07T06:14:26;67156.94;;;-0.31;100.00
36354;BME280;22383;51.114;13.666;2023-12-07T06:16:53;67158.63;;;-0.29;100.00
36354;BME280;22383;51.114;13.666;2023-12-07T06:19:21;67162.34;;;-0.28;100.00
36354;BME280;22383;51.114;13.666;2023-12-07T06:21:48;67166.28;;;-0.25;100.00
36354;BME280;22383;51.114;13.666;2023-12-07T06:24:15;67167.41;;;-0.24;100.00
36354;BME280;22383;51.114;13.666;2023-12-07T06:26:42;67164.03;;;-0.27;100.00
36354;BME280;22383;51.114;13.666;2023-12-07T06:29:09;67168.88;;;-0.25;100.00
36354;BME280;22383;51.114;13.666;2023-12-07T06:31:42;67172.97;;;-0.26;100.00
36354;BME280;22383;51.114;13.666;2023-12-07T06:34:10;67171.88;;;-0.20;100.00
36354;BME280;22383;51.114;13.666;2023-12-07T06:36:37;67168.31;;;-0.25;100.00
36354;BME280;22383;51.114;13.666;2023-12-07T06:39:04;67163.13;;;-0.25;100.00
36354;BME280;22383;51.114;13.666;2023-12-07T06:41:31;67168.53;;;-0.23;100.00
36354;BME280;22383;51.114;13.666;2023-12-07T06:43:58;67163.66;;;-0.25;100.00
36354;BME280;22383;51.114;13.666;2023-12-07T06:46:25;67167.97;;;-0.23;100.00
36354;BME280;22383;51.114;13.666;2023-12-07T06:48:53;67170.56;;;-0.23;100.00
36354;BME280;22383;51.114;13.666;2023-12-07T06:51:20;67170.56;;;-0.23;100.00
36354;BME280;22383;51.114;13.666;2023-12-07T06:53:47;67163.88;;;-0.22;100.00
36354;BME280;22383;51.114;13.666;2023-12-07T06:56:14;67165.34;;;-0.23;100.00
36354;BME280;22383;51.114;13.666;2023-12-07T06:58:41;67173.16;;;-0.23;100.00
36354;BME280;22383;51.114;13.666;2023-12-07T07:01:09;67168.53;;;-0.23;100.00
36354;BME280;22383;51.114;13.666;2023-12-07T07:03:36;67168.88;;;-0.25;100.00
36354;BME280;22383;51.114;13.666;2023-12-07T07:06:03;67172.81;;;-0.21;100.00
36354;BME280;22383;51.114;13.666;2023-12-07T07:08:31;67167.03;;;-0.22;100.00
36354;BME280;22383;51.114;13.666;2023-12-07T07:10:58;67172.47;;;-0.19;100.00
36354;BME280;22383;51.114;13.666;2023-12-07T07:13:26;67171.56;;;-0.17;100.00
36354;BME280;22383;51.114;13.666;2023-12-07T07:15:53;67176.94;;;-0.15;100.00
36354;BME280;22383;51.114;13.666;2023-12-07T07:18:21;67174.34;;;-0.15;100.00
36354;BME280;22383;51.114;13.666;2023-12-07T07:20:51;67178.41;;;-0.16;100.00
36354;BME280;22383;51.114;13.666;2023-12-07T07:23:18;67176.19;;;-0.18;100.00
36354;BME280;22383;51.114;13.666;2023-12-07T07:25:45;67179.56;;;-0.15;100.00
36354;BME280;22383;51.114;13.666;2023-12-07T07:28:12;67173.44;;;-0.13;100.00
36354;BME280;22383;51.114;13.666;2023-12-07T07:30:39;67177.88;;;-0.16;100.00
36354;BME280;22383;51.114;13.666;2023-12-07T07:33:06;67171.88;;;-0.20;100.00
36354;BME280;22383;51.114;13.666;2023-12-07T07:35:34;67170.78;;;-0.21;100.00
36354;BME280;22383;51.114;13.666;2023-12-07T07:38:01;67167.25;;;-0.19;100.00
36354;BME280;22383;51.114;13.666;2023-12-07T07:40:28;67169.28;;;-0.20;100.00
36354;BME280;22383;51.114;13.666;2023-12-07T07:42:55;67175.25;;;-0.16;100.00
36354;BME280;22383;51.114;13.666;2023-12-07T07:45:22;67176.75;;;-0.17;100.00
36354;BME280;22383;51.114;13.666;2023-12-07T07:47:50;67172.47;;;-0.19;100.00
36354;BME280;22383;51.114;13.666;2023-12-07T07:50:17;67168.72;;;-0.20;100.00
36354;BME280;22383;51.114;13.666;2023-12-07T07:52:44;67169.28;;;-0.20;100.00
36354;BME280;22383;51.114;13.666;2023-12-07T07:55:12;67176.19;;;-0.18;100.00
36354;BME280;22383;51.114;13.666;2023-12-07T07:57:39;67176.19;;;-0.18;100.00
36354;BME280;22383;51.114;13.666;2023-12-07T08:00:07;67173.56;;;-0.18;100.00
36354;BME280;22383;51.114;13.666;2023-12-07T08:02:35;67176.75;;;-0.17;100.00
36354;BME280;22383;51.114;13.666;2023-12-07T08:05:03;67175.25;;;-0.16;100.00
36354;BME280;22383;51.114;13.666;2023-12-07T08:07:31;67179.00;;;-0.15;100.00
36354;BME280;22383;51.114;13.666;2023-12-07T08:09:58;67176.94;;;-0.15;100.00
36354;BME280;22383;51.114;13.666;2023-12-07T08:12:25;67174.16;;;-0.17;100.00
36354;BME280;22383;51.114;13.666;2023-12-07T08:14:52;67168.19;;;-0.21;100.00
36354;BME280;22383;51.114;13.666;2023-12-07T08:17:19;67165.00;;;-0.21;100.00
36354;BME280;22383;51.114;13.666;2023-12-07T08:19:48;67169.66;;;-0.22;100.00
36354;BME280;22383;51.114;13.666;2023-12-07T08:22:16;67166.84;;;-0.24;100.00
36354;BME280;22383;51.114;13.666;2023-12-07T08:24:43;67168.88;;;-0.25;100.00
36354;BME280;22383;51.114;13.666;2023-12-07T08:27:11;67173.94;;;-0.20;100.00
36354;BME280;22383;51.114;13.666;2023-12-07T08:29:38;67167.97;;;-0.23;100.00
36354;BME280;22383;51.114;13.666;2023-12-07T08:32:05;67165.16;;;-0.26;100.00
36354;BME280;22383;51.114;13.666;2023-12-07T08:34:32;67166.84;;;-0.24;100.00
36354;BME280;22383;51.114;13.666;2023-12-07T08:36:59;67166.28;;;-0.25;100.00
36354;BME280;22383;51.114;13.666;2023-12-07T08:39:27;67172.59;;;-0.24;100.00
36354;BME280;22383;51.114;13.666;2023-12-07T08:41:54;67169.66;;;-0.22;100.00
36354;BME280;22383;51.114;13.666;2023-12-07T08:44:21;67162.19;;;-0.24;100.00
36354;BME280;22383;51.114;13.666;2023-12-07T08:46:49;67165.72;;;-0.25;100.00
36354;BME280;22383;51.114;13.666;2023-12-07T08:49:16;67162.75;;;-0.23;100.00
36354;BME280;22383;51.114;13.666;2023-12-07T08:51:43;67163.66;;;-0.25;100.00
36354;BME280;22383;51.114;13.666;2023-12-07T08:54:30;67164.59;;;-0.26;100.00
36354;BME280;22383;51.114;13.666;2023-12-07T08:56:57;67168.66;;;-0.27;100.00
36354;BME280;22383;51.114;13.666;2023-12-07T08:59:25;67164.59;;;-0.26;100.00
36354;BME280;22383;51.114;13.666;2023-12-07T09:01:52;67166.06;;;-0.27;100.00
36354;BME280;22383;51.114;13.666;2023-12-07T09:04:19;67162.91;;;-0.28;100.00
36354;BME280;22383;51.114;13.666;2023-12-07T09:06:46;67160.31;;;-0.28;100.00
36354;BME280;22383;51.114;13.666;2023-12-07T09:09:13;67157.50;;;-0.30;100.00
36354;BME280;22383;51.114;13.666;2023-12-07T09:11:41;67164.03;;;-0.27;100.00
36354;BME280;22383;51.114;13.666;2023-12-07T09:14:08;67166.84;;;-0.24;100.00
36354;BME280;22383;51.114;13.666;2023-12-07T09:16:42;67164.03;;;-0.27;100.00
36354;BME280;22383;51.114;13.666;2023-12-07T09:19:10;67170.00;;;-0.24;100.00
36354;BME280;22383;51.114;13.666;2023-12-07T09:21:37;67160.50;;;-0.25;100.00
36354;BME280;22383;51.114;13.666;2023-12-07T09:24:05;67168.88;;;-0.25;100.00
36354;BME280;22383;51.114;13.666;2023-12-07T09:26:33;67168.53;;;-0.23;100.00
36354;BME280;22383;51.114;13.666;2023-12-07T09:29:00;67170.78;;;-0.21;100.00
36354;BME280;22383;51.114;13.666;2023-12-07T09:31:28;67170.78;;;-0.21;100.00
36354;BME280;22383;51.114;13.666;2023-12-07T09:33:55;67173.94;;;-0.20;100.00
36354;BME280;22383;51.114;13.666;2023-12-07T09:36:37;67175.63;;;-0.18;100.00
36354;BME280;22383;51.114;13.666;2023-12-07T09:39:04;67174.50;;;-0.20;100.00
36354;BME280;22383;51.114;13.666;2023-12-07T09:41:32;67166.69;;;-0.20;100.00
36354;BME280;22383;51.114;13.666;2023-12-07T09:43:59;67166.69;;;-0.20;100.00
36354;BME280;22383;51.114;13.666;2023-12-07T09:46:28;67172.47;;;-0.19;100.00
36354;BME280;22383;51.114;13.666;2023-12-07T09:48:56;67176.94;;;-0.15;100.00
36354;BME280;22383;51.114;13.666;2023-12-07T09:51:25;67176.41;;;-0.15;100.00
36354;BME280;22383;51.114;13.666;2023-12-07T09:53:57;67185.19;;;-0.10;100.00
36354;BME280;22383;51.114;13.666;2023-12-07T09:56:24;67179.97;;;-0.10;100.00
36354;BME280;22383;51.114;13.666;2023-12-07T09:58:52;67179.19;;;-0.13;100.00
36354;BME280;22383;51.114;13.666;2023-12-07T10:01:20;67178.09;;;-0.14;100.00
36354;BME280;22383;51.114;13.666;2023-12-07T10:03:47;67179.56;;;-0.15;100.00
36354;BME280;22383;51.114;13.666;2023-12-07T10:06:15;67176.41;;;-0.15;100.00
36354;BME280;22383;51.114;13.666;2023-12-07T10:08:42;67177.16;;;-0.12;100.00
36354;BME280;22383;51.114;13.666;2023-12-07T10:11:12;67180.53;;;-0.09;100.00
36354;BME280;22383;51.114;13.666;2023-12-07T10:13:40;67184.63;;;-0.10;100.00
36354;BME280;22383;51.114;13.666;2023-12-07T10:16:15;67174.91;;;-0.14;100.00
36354;BME280;22383;51.114;13.666;2023-12-07T10:18:43;67176.41;;;-0.15;100.00
36354;BME280;22383;51.114;13.666;2023-12-07T10:21:12;67173.22;;;-0.16;100.00
36354;BME280;22383;51.114;13.666;2023-12-07T10:23:41;67174.16;;;-0.17;100.00
36354;BME280;22383;51.114;13.666;2023-12-07T10:26:11;67176.75;;;-0.17;100.00
36354;BME280;22383;51.114;13.666;2023-12-07T10:28:39;67168.97;;;-0.17;100.00
36354;BME280;22383;51.114;13.666;2023-12-07T10:31:09;67169.88;;;-0.19;100.00
36354;BME280;22383;51.114;13.666;2023-12-07T10:33:37;67177.66;;;-0.19;100.00
36354;BME280;22383;51.114;13.666;2023-12-07T10:36:05;67172.25;;;-0.22;100.00
36354;BME280;22383;51.114;13.666;2023-12-07T10:38:33;67170.41;;;-0.18;100.00
36354;BME280;22383;51.114;13.666;2023-12-07T10:41:05;67175.63;;;-0.18;100.00
36354;BME280;22383;51.114;13.666;2023-12-07T10:43:42;67169.66;;;-0.22;100.00
36354;BME280;22383;51.114;13.666;2023-12-07T10:46:14;67169.66;;;-0.22;100.00
36354;BME280;22383;51.114;13.666;2023-12-07T10:48:45;67168.53;;;-0.23;100.00
36354;BME280;22383;51.114;13.666;2023-12-07T10:51:22;67170.78;;;-0.21;100.00
36354;BME280;22383;51.114;13.666;2023-12-07T10:53:51;67171.88;;;-0.20;100.00
36354;BME280;22383;51.114;13.666;2023-12-07T10:56:27;67163.88;;;-0.22;100.00
36354;BME280;22383;51.114;13.666;2023-12-07T10:58:56;67169.09;;;-0.22;100.00
36354;BME280;22383;51.114;13.666;2023-12-07T11:01:24;67170.78;;;-0.21;100.00
36354;BME280;22383;51.114;13.666;2023-12-07T11:03:53;67169.88;;;-0.19;100.00
36354;BME280;22383;51.114;13.666;2023-12-07T11:06:21;67173.56;;;-0.18;100.00
36354;BME280;22383;51.114;13.666;2023-12-07T11:08:57;67176.94;;;-0.15;100.00
36354;BME280;22383;51.114;13.666;2023-12-07T11:11:32;67173.03;;;-0.18;100.00
36354;BME280;22383;51.114;13.666;2023-12-07T11:14:03;67176.41;;;-0.15;100.00
36354;BME280;22383;51.114;13.666;2023-12-07T11:16:32;67177.31;;;-0.17;100.00
36354;BME280;22383;51.114;13.666;2023-12-07T11:18:59;67176.41;;;-0.15;100.00
36354;BME280;22383;51.114;13.666;2023-12-07T11:21:27;67179.41;;;-0.10;100.00
36354;BME280;22383;51.114;13.666;2023-12-07T11:23:54;67181.25;;;-0.13;100.00
36354;BME280;22383;51.114;13.666;2023-12-07T11:26:24;67178.84;;;-0.11;100.00
36354;BME280;22383;51.114;13.666;2023-12-07T11:28:52;67180.34;;;-0.12;100.00
36354;BME280;22383;51.114;13.666;2023-12-07T11:31:21;67182.94;;;-0.12;100.00
36354;BME280;22383;51.114;13.666;2023-12-07T11:33:48;67182.34;;;-0.12;100.00
36354;BME280;22383;51.114;13.666;2023-12-07T11:36:16;67179.75;;;-0.12;100.00
36354;BME280;22383;51.114;13.666;2023-12-07T11:41:50;67183.13;;;-0.09;100.00
36354;BME280;22383;51.114;13.666;2023-12-07T11:44:17;67179.41;;;-0.10;100.00
36354;BME280;22383;51.114;13.666;2023-12-07T11:46:45;67183.72;;;-0.09;100.00
36354;BME280;22383;51.114;13.666;2023-12-07T11:49:12;67183.34;;;-0.07;100.00
36354;BME280;22383;51.114;13.666;2023-12-07T11:51:54;67183.91;;;-0.06;100.00
36354;BME280;22383;51.114;13.666;2023-12-07T11:54:26;67184.81;;;-0.08;100.00
36354;BME280;22383;51.114;13.666;2023-12-07T11:56:54;67186.50;;;-0.06;100.00
36354;BME280;22383;51.114;13.666;2023-12-07T11:59:22;67184.25;;;-0.08;100.00
36354;BME280;22383;51.114;13.666;2023-12-07T12:02:00;67182.56;;;-0.10;100.00
36354;BME280;22383;51.114;13.666;2023-12-07T12:04:29;67185.19;;;-0.10;100.00
36354;BME280;22383;51.114;13.666;2023-12-07T12:06:57;67183.72;;;-0.09;100.00
36354;BME280;22383;51.114;13.666;2023-12-07T12:09:24;67191.34;;;-0.04;100.00
36354;BME280;22383;51.114;13.666;2023-12-07T12:11:59;67191.72;;;-0.06;100.00
36354;BME280;22383;51.114;13.666;2023-12-07T12:14:30;67184.81;;;-0.08;100.00
36354;BME280;22383;51.114;13.666;2023-12-07T12:16:57;67184.81;;;-0.08;100.00
36354;BME280;22383;51.114;13.666;2023-12-07T12:19:25;67185.19;;;-0.10;100.00
36354;BME280;22383;51.114;13.666;2023-12-07T12:22:03;67179.97;;;-0.10;100.00
36354;BME280;22383;51.114;13.666;2023-12-07T12:24:38;67178.84;;;-0.11;100.00
36354;BME280;22383;51.114;13.666;2023-12-07T12:27:07;67179.75;;;-0.12;100.00
36354;BME280;22383;51.114;13.666;2023-12-07T12:29:34;67178.09;;;-0.14;100.00
36354;BME280;22383;51.114;13.666;2023-12-07T12:32:02;67174.34;;;-0.15;100.00
36354;BME280;22383;51.114;13.666;2023-12-07T12:34:32;67173.03;;;-0.18;100.00
36354;BME280;22383;51.114;13.666;2023-12-07T12:37:00;67171.34;;;-0.20;100.00
36354;BME280;22383;51.114;13.666;2023-12-07T12:39:28;67167.25;;;-0.19;100.00
36354;BME280;22383;51.114;13.666;2023-12-07T12:42:00;67171.34;;;-0.20;100.00
36354;BME280;22383;51.114;13.666;2023-12-07T12:44:30;67171.88;;;-0.20;100.00
36354;BME280;22383;51.114;13.666;2023-12-07T12:47:05;67167.59;;;-0.21;100.00
36354;BME280;22383;51.114;13.666;2023-12-07T12:49:37;67175.41;;;-0.21;100.00